Time;durP1;ratioP1;P1;durP2;ratioP2;P2;SDS_P1;SDS_P2;PMS_P1;PMS_P2;Temp;Humidity;BMP_temperature;BMP_pressure;BME280_temperature;BME280_humidity;BME280_pressure;Samples;Min_cycle;Max_cycle;Signal;HPM_P1;HPM_P2
2024/02/05 00:00:15;;;;;;;11.15;1.92;;;17.00;48.20;;;;;;4979081;28;20049;-65
2024/02/05 00:02:44;;;;;;;2.80;1.27;;;17.00;48.30;;;;;;4998125;28;20067;-65
2024/02/05 00:05:13;;;;;;;16.92;3.97;;;16.90;48.30;;;;;;5014482;28;20088;-66
2024/02/05 00:07:42;;;;;;;6.45;2.33;;;16.90;48.30;;;;;;5009715;28;20284;-67
2024/02/05 00:10:11;;;;;;;6.20;1.80;;;16.90;48.40;;;;;;5004898;28;20056;-66
2024/02/05 00:12:40;;;;;;;2.20;1.13;;;16.90;48.40;;;;;;4976984;28;20076;-68
2024/02/05 00:15:10;;;;;;;4.85;1.58;;;16.90;48.40;;;;;;4974105;28;21003;-68
2024/02/05 00:17:40;;;;;;;7.82;2.60;;;16.90;48.60;;;;;;4960755;28;20052;-65
2024/02/05 00:20:09;;;;;;;9.07;1.23;;;16.90;48.20;;;;;;4949860;28;20355;-64
2024/02/05 00:22:41;;;;;;;6.32;1.30;;;16.80;48.20;;;;;;4975050;28;20275;-65
2024/02/05 00:25:11;;;;;;;5.45;1.98;;;16.70;48.10;;;;;;4965076;28;20048;-65
2024/02/05 00:27:40;;;;;;;4.35;1.63;;;16.70;48.20;;;;;;4952975;28;20045;-64
2024/02/05 00:30:11;;;;;;;2.45;0.93;;;16.70;48.30;;;;;;4975440;28;20053;-65
2024/02/05 00:32:40;;;;;;;5.43;1.20;;;16.60;48.30;;;;;;4980092;28;20584;-64
2024/02/05 00:35:09;;;;;;;1.13;0.80;;;16.60;48.40;;;;;;4979039;28;21263;-65
2024/02/05 00:37:38;;;;;;;1.45;0.70;;;16.60;48.40;;;;;;4980212;28;20051;-65
2024/02/05 00:40:08;;;;;;;5.68;0.70;;;16.60;48.40;;;;;;4975254;28;20233;-65
2024/02/05 00:42:36;;;;;;;4.60;0.70;;;16.70;48.30;;;;;;4974302;28;20141;-66
2024/02/05 00:45:07;;;;;;;6.60;1.30;;;16.70;48.30;;;;;;4976421;28;20271;-65
2024/02/05 00:47:37;;;;;;;1.90;0.82;;;16.80;48.30;;;;;;5023788;28;20061;-64
2024/02/05 00:50:06;;;;;;;3.63;1.33;;;16.70;48.30;;;;;;5031016;28;20396;-66
2024/02/05 00:52:35;;;;;;;8.07;1.33;;;16.70;48.20;;;;;;5032813;28;20134;-65
2024/02/05 00:55:03;;;;;;;10.48;1.23;;;16.70;48.20;;;;;;5024004;28;20103;-64
2024/02/05 00:57:32;;;;;;;1.13;0.93;;;16.70;48.30;;;;;;5021587;28;20045;-66
2024/02/05 01:00:00;;;;;;;1.92;1.10;;;16.70;48.30;;;;;;5026091;28;20057;-66
2024/02/05 01:02:29;;;;;;;7.72;1.42;;;16.70;48.30;;;;;;5025480;28;20056;-69
2024/02/05 01:04:58;;;;;;;1.85;0.90;;;16.70;48.30;;;;;;5029965;28;20128;-81
2024/02/05 01:07:27;;;;;;;10.63;1.42;;;16.70;48.20;;;;;;5029841;28;20064;-67
2024/02/05 01:09:56;;;;;;;2.33;1.20;;;16.80;48.20;;;;;;5033572;28;20085;-67
2024/02/05 01:12:24;;;;;;;10.43;1.10;;;16.80;48.10;;;;;;5032946;28;20164;-66
2024/02/05 01:14:52;;;;;;;1.90;0.85;;;16.80;48.00;;;;;;5021221;28;20057;-65
2024/02/05 01:17:22;;;;;;;1.00;0.85;;;16.90;48.00;;;;;;5013491;28;20466;-65
2024/02/05 01:19:51;;;;;;;9.98;0.85;;;16.90;47.90;;;;;;4997343;28;20055;-64
2024/02/05 01:22:20;;;;;;;1.23;0.85;;;16.90;47.90;;;;;;5009523;28;20053;-64
2024/02/05 01:24:49;;;;;;;3.47;0.82;;;16.90;47.80;;;;;;5012574;28;20663;-65
2024/02/05 01:27:18;;;;;;;3.17;1.00;;;17.00;47.80;;;;;;5028515;28;20061;-65
2024/02/05 01:29:46;;;;;;;4.82;1.15;;;17.00;47.90;;;;;;5002363;28;20053;-65
2024/02/05 01:32:14;;;;;;;4.43;1.00;;;17.00;47.80;;;;;;4998150;28;20128;-65
2024/02/05 01:34:43;;;;;;;6.43;1.15;;;17.00;47.70;;;;;;5012958;28;20135;-65
2024/02/05 01:37:12;;;;;;;2.50;1.10;;;17.00;47.60;;;;;;5011307;28;20051;-66
2024/02/05 01:39:42;;;;;;;4.32;1.23;;;17.00;47.60;;;;;;5007595;28;20129;-67
2024/02/05 01:42:11;;;;;;;5.38;1.67;;;17.00;47.50;;;;;;4994733;28;20053;-66
2024/02/05 01:44:39;;;;;;;3.10;0.93;;;17.00;47.50;;;;;;4993677;28;20064;-64
2024/02/05 01:47:08;;;;;;;12.15;1.55;;;17.00;47.50;;;;;;4975451;28;20061;-66
2024/02/05 01:49:37;;;;;;;8.15;1.02;;;16.80;47.40;;;;;;4987663;28;20065;-64
2024/02/05 01:52:12;;;;;;;8.00;1.85;;;17.00;47.50;;;;;;5002995;28;20149;-65
2024/02/05 01:54:43;;;;;;;3.05;1.27;;;17.00;47.40;;;;;;5007929;28;20371;-64
2024/02/05 01:57:13;;;;;;;2.83;1.20;;;17.00;47.50;;;;;;5010991;28;20064;-65
2024/02/05 01:59:42;;;;;;;23.40;5.72;;;16.90;47.40;;;;;;5005200;28;20105;-64
2024/02/05 02:02:11;;;;;;;11.40;1.40;;;16.90;47.50;;;;;;4987730;28;20052;-64
2024/02/05 02:04:40;;;;;;;4.47;1.63;;;16.90;47.50;;;;;;4968093;28;20092;-63
2024/02/05 02:07:11;;;;;;;7.43;1.05;;;17.00;47.50;;;;;;4988282;28;20060;-65
2024/02/05 02:09:40;;;;;;;3.30;1.23;;;17.00;47.40;;;;;;5019909;28;20037;-64
2024/02/05 02:12:10;;;;;;;7.82;1.95;;;17.00;47.40;;;;;;5017118;28;20068;-64
2024/02/05 02:14:39;;;;;;;2.58;1.20;;;17.00;47.40;;;;;;4998217;28;20154;-64
2024/02/05 02:17:07;;;;;;;7.20;1.33;;;17.00;47.40;;;;;;5005200;28;20048;-63
2024/02/05 02:19:42;;;;;;;1.40;0.77;;;17.00;47.70;;;;;;5011758;28;20381;-65
2024/02/05 02:22:21;;;;;;;5.25;1.13;;;17.00;47.30;;;;;;5013998;28;20071;-84
2024/02/05 02:24:51;;;;;;;3.15;0.90;;;16.90;47.30;;;;;;5006721;28;20060;-64
2024/02/05 02:27:19;;;;;;;2.00;0.95;;;16.90;47.30;;;;;;5009165;28;20049;-65
2024/02/05 02:29:48;;;;;;;0.77;0.68;;;16.80;47.50;;;;;;5009754;28;20059;-65
2024/02/05 02:32:26;;;;;;;2.65;0.90;;;16.80;47.40;;;;;;5012866;28;20049;-64
2024/02/05 02:34:59;;;;;;;4.20;0.90;;;16.70;47.30;;;;;;5007626;28;20049;-65
2024/02/05 02:37:35;;;;;;;11.70;0.95;;;16.60;47.40;;;;;;5008953;28;20068;-64
2024/02/05 02:40:10;;;;;;;6.90;1.55;;;16.50;47.50;;;;;;5008329;28;20056;-66
2024/02/05 02:42:41;;;;;;;4.67;1.87;;;16.50;47.50;;;;;;5005967;28;20160;-63
2024/02/05 02:45:11;;;;;;;1.60;0.80;;;16.50;47.60;;;;;;5004646;28;20538;-64
2024/02/05 02:47:42;;;;;;;9.82;1.20;;;16.50;48.20;;;;;;5005630;28;20067;-64
2024/02/05 02:50:11;;;;;;;3.65;1.30;;;16.50;47.60;;;;;;4999071;28;20049;-65
2024/02/05 02:52:39;;;;;;;4.28;0.85;;;16.50;47.60;;;;;;5003321;28;20061;-64
2024/02/05 02:55:10;;;;;;;7.10;0.93;;;16.50;47.50;;;;;;4987496;28;20076;-84
2024/02/05 02:57:38;;;;;;;1.27;0.90;;;16.50;47.50;;;;;;4907061;28;20208;-64
2024/02/05 03:00:09;;;;;;;2.72;1.13;;;16.60;47.40;;;;;;4920229;28;20049;-63
2024/02/05 03:02:38;;;;;;;2.03;0.88;;;16.60;47.30;;;;;;4930084;28;20087;-64
2024/02/05 03:05:08;;;;;;;2.08;1.00;;;16.60;47.20;;;;;;4919428;28;20045;-64
2024/02/05 03:07:37;;;;;;;2.67;1.27;;;16.60;47.10;;;;;;4917530;28;20071;-64
2024/02/05 03:10:07;;;;;;;2.08;0.88;;;16.60;47.10;;;;;;4909516;28;20337;-64
2024/02/05 03:12:38;;;;;;;6.30;1.10;;;16.50;47.10;;;;;;4906599;28;20057;-64
2024/02/05 03:15:08;;;;;;;1.00;0.90;;;16.60;47.30;;;;;;4900617;28;20416;-65
2024/02/05 03:17:36;;;;;;;5.75;1.27;;;16.60;47.10;;;;;;4912965;28;20065;-64
2024/02/05 03:20:07;;;;;;;1.10;0.85;;;16.50;47.00;;;;;;4922897;28;20139;-84
2024/02/05 03:22:36;;;;;;;4.60;1.38;;;16.50;47.00;;;;;;4902159;28;20061;-64
2024/02/05 03:25:07;;;;;;;10.10;1.67;;;16.50;47.00;;;;;;4930317;28;20076;-65
2024/02/05 03:27:38;;;;;;;4.07;1.80;;;16.50;46.90;;;;;;4908935;28;20587;-64
2024/02/05 03:30:09;;;;;;;2.55;1.20;;;16.50;47.00;;;;;;4912331;28;20497;-64
2024/02/05 03:32:38;;;;;;;8.18;1.58;;;16.50;47.00;;;;;;4918152;28;20382;-65
2024/02/05 03:35:08;;;;;;;1.75;1.25;;;16.60;47.00;;;;;;4912462;28;20440;-64
2024/02/05 03:37:37;;;;;;;4.97;1.52;;;16.60;46.90;;;;;;4916556;28;20054;-64
2024/02/05 03:40:08;;;;;;;6.10;2.00;;;16.70;46.90;;;;;;4933009;28;20113;-66
2024/02/05 03:42:40;;;;;;;7.10;2.00;;;16.70;46.80;;;;;;4923108;28;20057;-64
2024/02/05 03:45:11;;;;;;;3.10;1.35;;;16.70;46.70;;;;;;4912247;28;20068;-66
2024/02/05 03:47:40;;;;;;;23.80;1.30;;;16.80;46.70;;;;;;4912311;28;21181;-64
2024/02/05 03:50:11;;;;;;;9.25;1.65;;;16.80;46.70;;;;;;4939802;28;20081;-65
2024/02/05 03:52:42;;;;;;;4.45;1.48;;;16.80;46.60;;;;;;4909076;28;20079;-72
2024/02/05 03:55:12;;;;;;;2.38;1.35;;;16.90;46.70;;;;;;4920403;28;20409;-64
2024/02/05 03:57:45;;;;;;;8.05;1.23;;;16.90;46.60;;;;;;4914312;28;21420;-65
2024/02/05 04:00:21;;;;;;;5.88;1.52;;;16.90;46.60;;;;;;4909867;28;20057;-64
2024/02/05 04:02:51;;;;;;;4.20;1.25;;;16.80;46.60;;;;;;4927269;28;20053;-64
2024/02/05 04:05:20;;;;;;;1.35;0.90;;;16.80;46.60;;;;;;4912567;28;20443;-64
2024/02/05 04:07:49;;;;;;;3.08;1.23;;;16.80;46.70;;;;;;4929376;28;20049;-63
2024/02/05 04:10:19;;;;;;;13.15;1.45;;;16.90;46.70;;;;;;4908292;28;20754;-63
2024/02/05 04:12:51;;;;;;;11.15;1.30;;;16.90;46.60;;;;;;4922314;28;20053;-64
2024/02/05 04:15:22;;;;;;;4.68;1.75;;;16.90;46.50;;;;;;4917082;28;20057;-65
2024/02/05 04:17:52;;;;;;;3.55;1.85;;;17.00;46.60;;;;;;4938545;28;20722;-63
2024/02/05 04:20:21;;;;;;;14.70;1.88;;;16.90;46.50;;;;;;4922163;28;20453;-64
2024/02/05 04:22:50;;;;;;;20.75;5.68;;;17.00;46.60;;;;;;4913335;28;20107;-64
2024/02/05 04:25:21;;;;;;;10.90;1.83;;;17.00;46.50;;;;;;4905371;28;20266;-64
2024/02/05 04:27:52;;;;;;;4.30;1.58;;;17.00;46.50;;;;;;4912893;28;20310;-66
2024/02/05 04:30:28;;;;;;;3.38;1.40;;;17.10;46.40;;;;;;4921374;28;20862;-65
2024/02/05 04:32:57;;;;;;;4.50;1.80;;;17.00;46.40;;;;;;4916493;28;20741;-63
2024/02/05 04:35:26;;;;;;;14.48;2.30;;;17.00;46.40;;;;;;4914404;28;20056;-63
2024/02/05 04:37:55;;;;;;;6.13;2.58;;;17.00;46.40;;;;;;4909206;28;20057;-64
2024/02/05 04:40:24;;;;;;;3.55;1.90;;;17.00;46.50;;;;;;4913732;28;20524;-64
2024/02/05 04:42:55;;;;;;;8.80;1.80;;;17.00;46.50;;;;;;4909896;28;20382;-66
2024/02/05 04:45:26;;;;;;;8.57;1.90;;;17.00;46.40;;;;;;4899371;28;20049;-83
2024/02/05 04:47:55;;;;;;;7.40;1.95;;;17.00;46.40;;;;;;4927836;28;20394;-81
2024/02/05 04:50:23;;;;;;;14.68;1.90;;;16.90;46.40;;;;;;4929616;28;20527;-65
2024/02/05 04:52:52;;;;;;;3.95;1.75;;;16.90;46.50;;;;;;4941233;28;20300;-63
2024/02/05 04:55:21;;;;;;;8.32;1.20;;;16.80;46.50;;;;;;4922180;28;20545;-64
2024/02/05 04:57:50;;;;;;;3.67;1.25;;;16.80;46.60;;;;;;4937574;28;20704;-65
2024/02/05 05:00:22;;;;;;;32.65;2.25;;;16.80;46.60;;;;;;4917868;28;20694;-64
2024/02/05 05:02:52;;;;;;;14.57;2.03;;;16.70;46.70;;;;;;4911459;28;20072;-63
2024/02/05 05:05:21;;;;;;;5.75;1.55;;;16.70;46.60;;;;;;4930763;28;20150;-64
2024/02/05 05:07:50;;;;;;;18.63;1.90;;;16.70;46.60;;;;;;4922177;28;20079;-65
2024/02/05 05:10:19;;;;;;;11.65;1.55;;;16.70;46.70;;;;;;4945205;28;20053;-65
2024/02/05 05:12:48;;;;;;;6.50;1.98;;;16.70;46.70;;;;;;4925399;28;20273;-65
2024/02/05 05:15:18;;;;;;;9.05;1.80;;;16.70;46.90;;;;;;4934097;28;20431;-64
2024/02/05 05:17:49;;;;;;;5.95;1.50;;;16.70;46.80;;;;;;4889895;28;20132;-64
2024/02/05 05:20:19;;;;;;;5.65;1.75;;;16.60;46.80;;;;;;4882794;28;20390;-66
2024/02/05 05:22:48;;;;;;;3.60;2.00;;;16.90;47.20;;;;;;4919210;28;20487;-65
2024/02/05 05:25:17;;;;;;;6.78;1.50;;;16.60;46.80;;;;;;4888783;28;20283;-66
2024/02/05 05:27:47;;;;;;;9.00;1.55;;;16.60;46.80;;;;;;4915972;28;20205;-65
2024/02/05 05:30:16;;;;;;;9.07;1.50;;;16.60;47.20;;;;;;4921446;28;20823;-65
2024/02/05 05:32:45;;;;;;;4.70;1.77;;;16.60;46.90;;;;;;4925165;28;20057;-64
2024/02/05 05:35:16;;;;;;;3.60;1.30;;;16.60;47.00;;;;;;4934752;28;20139;-64
2024/02/05 05:37:45;;;;;;;4.60;2.25;;;16.60;47.00;;;;;;4935113;28;20421;-67
2024/02/05 05:40:14;;;;;;;2.38;1.40;;;16.60;47.00;;;;;;4943112;28;20269;-64
2024/02/05 05:42:43;;;;;;;9.85;2.10;;;16.60;47.00;;;;;;4938464;28;20688;-64
2024/02/05 05:45:12;;;;;;;26.40;2.72;;;16.60;47.00;;;;;;4934203;28;20151;-65
2024/02/05 05:47:42;;;;;;;4.07;1.55;;;16.60;48.00;;;;;;4938863;28;20048;-64
2024/02/05 05:50:11;;;;;;;20.80;2.50;;;16.60;47.10;;;;;;4926662;28;20111;-66
2024/02/05 05:52:42;;;;;;;17.80;4.05;;;16.60;47.10;;;;;;4931420;28;20061;-65
2024/02/05 05:55:12;;;;;;;16.17;2.83;;;16.60;47.10;;;;;;4937253;28;20122;-86
2024/02/05 05:57:41;;;;;;;15.48;4.85;;;16.60;47.10;;;;;;4930946;28;20697;-59
2024/02/05 06:00:11;;;;;;;10.32;2.55;;;16.50;47.10;;;;;;4926775;28;20472;-60
2024/02/05 06:02:40;;;;;;;3.42;2.15;;;16.60;47.30;;;;;;4930008;28;20608;-58
2024/02/05 06:05:09;;;;;;;8.82;3.45;;;16.70;47.40;;;;;;4929134;28;20137;-59
2024/02/05 06:07:41;;;;;;;16.63;3.92;;;16.80;47.30;;;;;;4914370;28;20504;-59
2024/02/05 06:10:10;;;;;;;14.52;3.35;;;16.70;47.10;;;;;;4929561;28;20060;-57
2024/02/05 06:12:40;;;;;;;9.82;3.83;;;16.70;47.10;;;;;;4942660;28;20055;-61
2024/02/05 06:15:09;;;;;;;8.40;3.75;;;16.60;47.10;;;;;;4930447;28;20319;-61
2024/02/05 06:17:38;;;;;;;19.75;5.07;;;16.50;47.10;;;;;;5022068;28;20137;-60
2024/02/05 06:20:08;;;;;;;15.18;4.75;;;16.40;47.20;;;;;;5026457;28;20056;-59
2024/02/05 06:22:41;;;;;;;18.60;4.85;;;16.30;47.20;;;;;;5030383;28;20140;-59
2024/02/05 06:25:10;;;;;;;15.10;4.07;;;16.10;47.40;;;;;;5030128;28;20069;-61
2024/02/05 06:27:39;;;;;;;6.43;2.78;;;15.90;47.50;;;;;;4986867;28;20487;-60
2024/02/05 06:30:12;;;;;;;10.02;2.67;;;15.80;47.60;;;;;;5025685;28;20537;-60
2024/02/05 06:32:40;;;;;;;10.57;2.65;;;15.60;47.90;;;;;;5026719;28;20084;-60
2024/02/05 06:35:09;;;;;;;6.28;2.20;;;15.50;47.90;;;;;;5019815;28;21662;-59
2024/02/05 06:37:38;;;;;;;11.32;2.97;;;15.30;47.90;;;;;;4925011;28;20441;-59
2024/02/05 06:40:10;;;;;;;18.73;3.83;;;15.20;48.00;;;;;;4929406;28;20329;-58
2024/02/05 06:42:39;;;;;;;10.85;3.47;;;15.10;48.10;;;;;;4924241;28;20745;-56
2024/02/05 06:45:09;;;;;;;17.05;4.03;;;15.00;48.10;;;;;;5016771;28;20060;-57
2024/02/05 06:47:38;;;;;;;11.95;3.53;;;14.90;48.10;;;;;;5023585;28;20399;-58
2024/02/05 06:50:10;;;;;;;24.67;3.95;;;14.80;48.30;;;;;;5026291;28;20056;-57
2024/02/05 06:52:38;;;;;;;6.93;3.22;;;14.70;48.50;;;;;;4991366;28;20640;-59
2024/02/05 06:55:09;;;;;;;12.52;3.60;;;14.70;48.60;;;;;;5015559;28;20049;-60
2024/02/05 06:57:37;;;;;;;10.23;3.53;;;14.60;48.60;;;;;;5016772;28;20150;-58
2024/02/05 07:00:08;;;;;;;10.55;4.05;;;14.50;48.70;;;;;;5027956;28;20076;-51
2024/02/05 07:02:37;;;;;;;12.70;2.95;;;14.50;48.80;;;;;;5025613;28;20129;-56
2024/02/05 07:05:05;;;;;;;12.85;4.18;;;14.40;48.80;;;;;;5024528;28;20065;-53
2024/02/05 07:07:34;;;;;;;13.10;4.28;;;14.40;48.90;;;;;;4992600;28;20057;-53
2024/02/05 07:10:03;;;;;;;12.60;3.80;;;14.40;49.00;;;;;;5021287;28;20068;-53
2024/02/05 07:12:33;;;;;;;17.52;4.63;;;14.40;49.00;;;;;;5031485;28;20087;-57
2024/02/05 07:15:07;;;;;;;8.23;2.40;;;14.40;49.00;;;;;;5027779;28;20052;-56
2024/02/05 07:17:36;;;;;;;8.20;3.13;;;14.40;49.10;;;;;;5030558;28;20037;-54
2024/02/05 07:20:05;;;;;;;18.75;3.40;;;14.40;49.10;;;;;;5018476;28;20686;-57
2024/02/05 07:22:34;;;;;;;5.95;2.72;;;14.30;49.10;;;;;;4992352;28;20422;-56
2024/02/05 07:25:03;;;;;;;10.60;2.00;;;14.30;49.20;;;;;;5027312;28;20060;-64
2024/02/05 07:27:35;;;;;;;20.50;2.45;;;14.30;49.20;;;;;;5028828;28;20057;-56
2024/02/05 07:30:05;;;;;;;4.35;1.95;;;14.30;49.20;;;;;;5021480;28;20483;-57
2024/02/05 07:32:33;;;;;;;5.30;2.33;;;14.30;49.30;;;;;;5023923;28;20053;-56
2024/02/05 07:35:02;;;;;;;7.13;2.53;;;14.30;49.40;;;;;;5004450;28;20061;-68
2024/02/05 07:37:33;;;;;;;9.88;3.45;;;14.30;49.40;;;;;;4976747;28;20381;-55
2024/02/05 07:40:04;;;;;;;6.43;1.52;;;14.30;49.70;;;;;;4927814;28;20056;-55
2024/02/05 07:42:35;;;;;;;3.53;1.80;;;14.30;49.40;;;;;;5010569;28;20060;-62
2024/02/05 07:45:03;;;;;;;28.08;2.60;;;14.40;49.40;;;;;;5027284;28;20064;-61
2024/02/05 07:47:32;;;;;;;4.72;2.35;;;14.40;49.40;;;;;;5026865;28;20686;-59
2024/02/05 07:50:00;;;;;;;5.57;1.80;;;14.40;49.40;;;;;;5029386;28;20049;-59
2024/02/05 07:52:28;;;;;;;16.17;2.53;;;14.40;49.50;;;;;;4997768;28;20542;-59
2024/02/05 07:54:57;;;;;;;5.55;1.70;;;14.40;49.60;;;;;;4981992;28;20066;-60
2024/02/05 07:57:26;;;;;;;11.07;2.10;;;14.40;49.60;;;;;;4999870;28;20073;-73
2024/02/05 07:59:57;;;;;;;7.32;2.08;;;14.50;49.60;;;;;;5014607;28;20156;-59
2024/02/05 08:02:26;;;;;;;5.22;0.95;;;14.50;49.60;;;;;;5006103;28;20057;-58
2024/02/05 08:04:55;;;;;;;9.57;1.30;;;14.50;49.60;;;;;;5011021;28;20041;-59
2024/02/05 08:07:24;;;;;;;7.47;1.45;;;14.50;49.60;;;;;;5007113;28;20105;-58
2024/02/05 08:09:52;;;;;;;6.43;1.33;;;14.60;49.60;;;;;;5006128;28;20069;-59
2024/02/05 08:12:22;;;;;;;2.33;1.30;;;14.50;49.60;;;;;;5006209;28;20053;-58
2024/02/05 08:14:50;;;;;;;6.10;1.52;;;14.50;49.60;;;;;;5006343;28;20115;-59
2024/02/05 08:17:20;;;;;;;4.70;1.77;;;14.50;49.70;;;;;;5028413;28;20057;-63
2024/02/05 08:19:48;;;;;;;2.85;1.05;;;14.50;49.70;;;;;;5024733;28;20106;-59
2024/02/05 08:22:17;;;;;;;7.93;1.55;;;14.50;49.80;;;;;;5030505;28;20229;-59
2024/02/05 08:24:46;;;;;;;2.25;1.20;;;14.40;49.80;;;;;;5017874;28;20761;-60
2024/02/05 08:27:14;;;;;;;1.35;1.10;;;14.50;49.90;;;;;;5029213;28;20064;-60
2024/02/05 08:29:43;;;;;;;4.80;1.30;;;14.50;50.00;;;;;;5025707;28;20527;-71
2024/02/05 08:32:11;;;;;;;13.32;2.10;;;14.50;50.00;;;;;;5029299;28;20106;-61
2024/02/05 08:34:41;;;;;;;6.65;1.50;;;14.50;50.00;;;;;;5018092;28;20057;-61
2024/02/05 08:37:10;;;;;;;2.72;1.23;;;14.60;50.20;;;;;;5004202;28;20065;-62
2024/02/05 08:39:38;;;;;;;5.18;2.00;;;15.10;51.00;;;;;;4928147;28;20359;-61
2024/02/05 08:42:07;;;;;;;10.02;1.65;;;15.70;51.20;;;;;;4945317;28;20059;-61
2024/02/05 08:44:52;;;;;;;7.25;1.45;;;16.50;50.80;;;;;;5028162;28;20091;-60
2024/02/05 08:47:20;;;;;;;6.25;1.55;;;17.50;50.10;;;;;;5022183;28;20604;-59
2024/02/05 08:49:50;;;;;;;11.50;1.92;;;18.20;49.50;;;;;;5027896;28;20048;-60
2024/02/05 08:52:19;;;;;;;6.68;1.42;;;18.90;48.60;;;;;;5025783;28;20096;-58
2024/02/05 08:54:48;;;;;;;18.00;3.70;;;19.50;48.00;;;;;;4988258;28;20089;-58
2024/02/05 08:57:18;;;;;;;10.68;2.97;;;20.10;47.50;;;;;;4980503;28;20056;-58
2024/02/05 08:59:50;;;;;;;9.25;2.83;;;20.60;46.80;;;;;;5006463;28;20537;-59
2024/02/05 09:02:19;;;;;;;23.13;2.85;;;21.00;46.30;;;;;;5019015;28;20057;-59
2024/02/05 09:04:48;;;;;;;8.27;2.10;;;21.50;46.10;;;;;;5029740;28;20045;-60
2024/02/05 09:07:18;;;;;;;4.57;1.67;;;22.00;45.60;;;;;;5019013;28;20099;-59
2024/02/05 09:09:46;;;;;;;1.60;1.17;;;22.40;45.00;;;;;;5041293;28;20057;-58
2024/02/05 09:12:14;;;;;;;3.13;1.45;;;22.70;44.50;;;;;;5027379;28;20115;-59
2024/02/05 09:14:43;;;;;;;14.57;2.25;;;23.10;44.10;;;;;;5028198;28;20061;-64
2024/02/05 09:17:11;;;;;;;5.95;1.60;;;23.30;43.50;;;;;;5027873;28;20072;-59
2024/02/05 09:19:39;;;;;;;11.07;2.20;;;23.50;43.40;;;;;;5018255;28;20430;-60
2024/02/05 09:22:08;;;;;;;13.27;1.58;;;23.70;42.90;;;;;;5019584;28;20139;-58
2024/02/05 09:24:38;;;;;;;9.60;1.77;;;23.90;42.50;;;;;;4985098;28;20399;-60
2024/02/05 09:27:07;;;;;;;2.92;1.17;;;24.10;42.40;;;;;;5011464;28;20067;-60
2024/02/05 09:29:35;;;;;;;10.15;1.52;;;24.30;42.10;;;;;;5010438;28;20154;-59
2024/02/05 09:32:04;;;;;;;11.75;2.55;;;24.60;42.00;;;;;;5018204;28;20136;-59
2024/02/05 09:34:33;;;;;;;9.23;2.35;;;24.90;41.60;;;;;;5033224;28;20111;-59
2024/02/05 09:37:01;;;;;;;6.85;1.55;;;25.10;41.20;;;;;;5014498;28;20045;-68
2024/02/05 09:39:30;;;;;;;11.77;1.60;;;25.30;40.90;;;;;;4948277;28;20083;-60
2024/02/05 09:42:02;;;;;;;11.80;2.10;;;25.40;40.50;;;;;;4914807;28;20195;-57
2024/02/05 09:44:37;;;;;;;14.63;1.75;;;25.50;40.00;;;;;;4931004;28;20919;-59
2024/02/05 09:47:07;;;;;;;25.60;2.60;;;25.60;40.00;;;;;;4958106;28;20061;-60
2024/02/05 09:49:36;;;;;;;4.60;1.42;;;25.70;39.70;;;;;;5030633;28;20061;-60
2024/02/05 09:52:07;;;;;;;18.52;1.83;;;25.80;39.50;;;;;;5029312;28;20104;-61
2024/02/05 09:54:41;;;;;;;4.88;1.38;;;25.80;39.30;;;;;;5018600;28;20048;-59
2024/02/05 09:57:11;;;;;;;8.32;2.10;;;25.90;39.50;;;;;;4985463;28;20351;-58
2024/02/05 09:59:40;;;;;;;5.45;2.05;;;26.10;39.20;;;;;;5026875;28;20055;-59
2024/02/05 10:02:10;;;;;;;9.55;1.90;;;26.30;39.00;;;;;;5013050;28;20057;-58
2024/02/05 10:04:44;;;;;;;10.23;1.90;;;26.50;38.90;;;;;;5025591;28;20052;-59
2024/02/05 10:07:15;;;;;;;8.60;2.03;;;27.00;39.00;;;;;;5028263;28;20056;-61
2024/02/05 10:09:44;;;;;;;7.45;1.80;;;27.30;38.40;;;;;;5010897;28;20796;-59
2024/02/05 10:12:14;;;;;;;9.27;1.83;;;27.50;38.00;;;;;;5019722;28;20069;-59
2024/02/05 10:14:44;;;;;;;3.78;1.52;;;27.80;37.90;;;;;;5015294;28;20068;-60
2024/02/05 10:17:12;;;;;;;19.60;1.90;;;28.00;37.30;;;;;;5000003;28;20131;-59
2024/02/05 10:19:40;;;;;;;15.02;2.25;;;28.10;37.10;;;;;;5005281;28;20653;-60
2024/02/05 10:22:09;;;;;;;22.60;2.95;;;28.20;37.00;;;;;;5015565;28;20143;-59
2024/02/05 10:24:41;;;;;;;9.65;2.35;;;28.40;36.90;;;;;;4938010;28;20240;-61
2024/02/05 10:27:17;;;;;;;9.23;1.83;;;28.70;36.60;;;;;;4896034;28;20100;-59
2024/02/05 10:29:59;;;;;;;10.77;2.33;;;29.00;36.30;;;;;;4918391;28;20049;-59
2024/02/05 10:32:33;;;;;;;11.20;2.58;;;29.10;35.60;;;;;;4922721;28;20092;-60
2024/02/05 10:35:02;;;;;;;10.52;1.98;;;29.20;35.60;;;;;;4915508;28;20041;-60
2024/02/05 10:37:33;;;;;;;12.48;3.28;;;29.30;35.20;;;;;;4923381;28;20605;-60
2024/02/05 10:40:10;;;;;;;6.57;2.65;;;29.30;35.00;;;;;;4911558;28;20609;-60
2024/02/05 10:42:42;;;;;;;8.73;3.10;;;29.30;34.80;;;;;;4916592;28;20085;-60
2024/02/05 10:45:13;;;;;;;16.10;2.72;;;29.40;34.70;;;;;;4944401;28;20057;-62
2024/02/05 10:47:46;;;;;;;14.35;2.20;;;29.40;34.30;;;;;;4937098;28;20053;-58
2024/02/05 10:50:15;;;;;;;20.30;3.75;;;29.30;34.20;;;;;;4924445;28;20526;-58
2024/02/05 10:52:45;;;;;;;14.27;2.92;;;29.20;34.20;;;;;;4909271;28;20041;-54
2024/02/05 10:55:16;;;;;;;10.55;2.83;;;29.20;34.10;;;;;;4924707;28;20037;-54
2024/02/05 10:57:50;;;;;;;5.70;1.65;;;29.20;34.00;;;;;;4923397;28;20279;-53
2024/02/05 11:00:21;;;;;;;11.40;1.83;;;29.30;34.00;;;;;;4905157;28;20156;-53
2024/02/05 11:02:53;;;;;;;5.80;2.70;;;29.30;33.70;;;;;;4941750;28;20079;-53
2024/02/05 11:05:23;;;;;;;20.70;2.20;;;29.10;33.40;;;;;;4937898;28;20063;-55
2024/02/05 11:07:59;;;;;;;15.45;3.05;;;28.80;33.20;;;;;;4907373;28;20341;-53
2024/02/05 11:10:31;;;;;;;12.48;2.63;;;28.50;33.20;;;;;;4920481;28;20376;-56
2024/02/05 11:13:04;;;;;;;11.82;2.33;;;28.10;33.30;;;;;;4921626;28;20055;-52
2024/02/05 11:15:38;;;;;;;3.38;1.75;;;27.70;33.70;;;;;;4919711;28;20349;-52
2024/02/05 11:18:14;;;;;;;6.65;2.53;;;27.50;33.90;;;;;;4917088;28;20061;-52
2024/02/05 11:20:45;;;;;;;13.40;2.67;;;27.20;34.00;;;;;;4932154;28;20195;-50
2024/02/05 11:23:16;;;;;;;7.68;2.08;;;26.80;34.30;;;;;;4931166;28;20067;-62
2024/02/05 11:25:46;;;;;;;15.25;2.42;;;26.20;34.50;;;;;;4954616;28;20040;-53
2024/02/05 11:28:17;;;;;;;11.07;2.05;;;25.60;35.00;;;;;;4922973;28;21300;-57
2024/02/05 11:30:48;;;;;;;10.55;3.88;;;25.10;35.60;;;;;;4924349;28;20471;-53
2024/02/05 11:33:27;;;;;;;4.45;2.08;;;24.50;35.80;;;;;;4924692;28;20792;-53
2024/02/05 11:35:58;;;;;;;13.23;3.13;;;23.70;36.30;;;;;;4900359;28;20057;-49
2024/02/05 11:38:27;;;;;;;7.90;2.88;;;23.00;37.30;;;;;;4911725;28;20448;-55
2024/02/05 11:40:57;;;;;;;13.27;2.00;;;22.40;37.70;;;;;;4923266;28;20178;-56
2024/02/05 11:43:29;;;;;;;25.65;2.85;;;21.80;38.30;;;;;;4940084;28;20607;-69
2024/02/05 11:45:58;;;;;;;11.68;2.72;;;21.30;38.80;;;;;;4927654;28;20087;-68
2024/02/05 11:48:27;;;;;;;12.75;2.38;;;20.90;39.20;;;;;;4930282;28;20176;-57
2024/02/05 11:51:00;;;;;;;37.33;4.40;;;20.60;39.60;;;;;;4944567;28;20467;-59
2024/02/05 11:53:31;;;;;;;9.85;2.40;;;20.40;39.90;;;;;;4903032;28;20067;-58
2024/02/05 11:56:02;;;;;;;7.10;2.33;;;20.20;40.20;;;;;;4922852;28;20232;-57
2024/02/05 11:58:33;;;;;;;18.83;2.30;;;20.10;40.40;;;;;;4940150;28;20347;-59
2024/02/05 12:01:02;;;;;;;10.45;2.53;;;20.00;40.60;;;;;;4919845;28;20055;-57
2024/02/05 12:03:31;;;;;;;6.63;3.25;;;19.90;40.80;;;;;;4931166;28;20831;-56
2024/02/05 12:06:01;;;;;;;16.05;2.78;;;19.90;41.10;;;;;;4928977;28;20478;-57
2024/02/05 12:08:30;;;;;;;23.27;2.60;;;19.80;41.00;;;;;;4934604;28;20318;-51
2024/02/05 12:10:59;;;;;;;11.70;2.58;;;19.80;41.10;;;;;;4935094;28;20053;-53
2024/02/05 12:13:33;;;;;;;11.45;2.50;;;19.80;41.10;;;;;;4934665;28;20118;-57
2024/02/05 12:16:14;;;;;;;12.27;2.53;;;19.80;41.10;;;;;;4939149;28;20053;-54
2024/02/05 12:18:43;;;;;;;15.90;3.67;;;19.80;41.20;;;;;;4941300;28;20152;-55
2024/02/05 12:21:18;;;;;;;27.90;2.65;;;19.90;41.30;;;;;;4923049;28;20495;-55
2024/02/05 12:23:49;;;;;;;34.10;2.97;;;19.90;41.40;;;;;;4920027;28;20264;-55
2024/02/05 12:26:18;;;;;;;6.68;2.80;;;19.90;41.50;;;;;;4931756;28;20296;-55
2024/02/05 12:28:52;;;;;;;110.72;23.83;;;20.00;41.40;;;;;;4930106;28;20053;-55
2024/02/05 12:31:23;;;;;;;43.50;11.63;;;20.00;41.40;;;;;;4938845;28;20061;-55
2024/02/05 12:33:58;;;;;;;9.32;3.70;;;20.10;41.40;;;;;;4929409;28;20422;-53
2024/02/05 12:36:36;;;;;;;26.20;8.75;;;20.10;41.40;;;;;;4939893;28;20057;-58
2024/02/05 12:39:07;;;;;;;7.07;2.15;;;20.10;41.50;;;;;;4924498;28;20106;-55
2024/02/05 12:41:37;;;;;;;22.27;4.65;;;20.10;41.70;;;;;;4933054;28;20365;-54
2024/02/05 12:44:08;;;;;;;36.85;4.45;;;20.20;41.70;;;;;;4920632;28;20487;-50
2024/02/05 12:46:49;;;;;;;13.57;1.98;;;20.20;41.60;;;;;;4939144;28;20450;-52
2024/02/05 12:49:20;;;;;;;11.90;3.35;;;20.30;41.60;;;;;;4945353;28;20400;-54
2024/02/05 12:51:50;;;;;;;17.58;3.53;;;20.30;41.60;;;;;;4940400;28;20173;-51
2024/02/05 12:54:21;;;;;;;15.93;3.03;;;20.30;41.60;;;;;;4919970;28;20393;-53
2024/02/05 12:56:50;;;;;;;13.07;2.67;;;20.30;41.70;;;;;;4934202;28;20499;-52